Time;durP1;ratioP1;P1;durP2;ratioP2;P2;SDS_P1;SDS_P2;PMS_P1;PMS_P2;Temp;Humidity;BMP_temperature;BMP_pressure;BME280_temperature;BME280_humidity;BME280_pressure;Samples;Min_cycle;Max_cycle;Signal;HPM_P1;HPM_P2
2022/08/26 00:00:39;;;;;;;15.82;2.58;;;;;;;20.78;80.27;101712.59;5113290;27;20394;-79
2022/08/26 00:03:05;;;;;;;5.80;1.77;;;;;;;20.79;80.41;101712.34;5092558;28;20036;-76
2022/08/26 00:05:30;;;;;;;6.53;1.50;;;;;;;20.79;80.29;101703.13;5108605;27;20031;-77
2022/08/26 00:07:56;;;;;;;10.13;1.90;;;;;;;20.80;80.20;101702.91;5094787;28;20547;-76
2022/08/26 00:10:23;;;;;;;11.97;1.93;;;;;;;20.78;80.06;101709.81;5095720;28;20084;-77
2022/08/26 00:12:50;;;;;;;9.38;1.63;;;;;;;20.77;79.83;101705.34;5094924;28;20532;-78
2022/08/26 00:15:18;;;;;;;6.72;2.08;;;;;;;20.79;80.13;101717.94;5096462;28;20059;-75
2022/08/26 00:17:44;;;;;;;9.98;2.03;;;;;;;20.77;80.17;101714.56;5096038;28;20463;-78
2022/08/26 00:20:13;;;;;;;6.25;1.38;;;;;;;20.75;80.26;101722.28;5090743;27;20030;-78
2022/08/26 00:22:39;;;;;;;7.05;2.17;;;;;;;20.82;79.68;101708.25;5114894;27;20032;-78
2022/08/26 00:25:06;;;;;;;9.70;1.97;;;;;;;20.74;80.17;101714.16;5088719;28;20368;-76
2022/08/26 00:27:32;;;;;;;5.70;1.23;;;;;;;20.73;79.96;101709.69;5093296;27;20040;-76
2022/08/26 00:29:59;;;;;;;4.63;1.13;;;;;;;20.71;79.87;101709.91;5079138;28;20088;-77
2022/08/26 00:32:24;;;;;;;11.18;2.50;;;;;;;20.78;79.92;101716.25;5092991;27;20676;-78
2022/08/26 00:34:50;;;;;;;6.00;1.37;;;;;;;20.75;79.74;101716.72;5095180;28;20090;-78
2022/08/26 00:37:15;;;;;;;10.03;1.30;;;;;;;20.75;79.57;101710.31;5109470;27;20027;-76
2022/08/26 00:39:42;;;;;;;7.53;1.67;;;;;;;20.65;79.52;101718.41;5112304;27;20036;-77
2022/08/26 00:42:07;;;;;;;3.85;1.35;;;;;;;20.63;79.66;101712.22;5090054;28;20023;-77
2022/08/26 00:44:32;;;;;;;5.90;1.33;;;;;;;20.57;79.93;101704.84;5113749;27;20046;-76
2022/08/26 00:47:01;;;;;;;8.17;1.63;;;;;;;20.64;79.83;101705.59;5096696;28;20028;-76
2022/08/26 00:49:32;;;;;;;4.05;1.30;;;;;;;20.55;79.95;101710.66;5096261;28;20047;-78
2022/08/26 00:52:00;;;;;;;11.13;1.77;;;;;;;20.58;80.05;101723.25;5112583;27;20027;-78
2022/08/26 00:54:32;;;;;;;10.68;1.63;;;;;;;20.59;79.66;101711.88;5089819;28;20122;-77
2022/08/26 00:57:02;;;;;;;11.25;2.30;;;;;;;20.61;79.70;101711.63;5094743;28;20035;-77
2022/08/26 00:59:29;;;;;;;4.45;1.45;;;;;;;20.60;79.49;101713.56;5092685;28;20118;-77
2022/08/26 01:01:55;;;;;;;4.05;0.90;;;;;;;20.55;79.60;101713.44;5073541;28;20042;-78
2022/08/26 01:04:23;;;;;;;8.93;1.48;;;;;;;20.48;79.80;101723.00;5090994;28;20027;-77
2022/08/26 01:06:51;;;;;;;9.80;1.90;;;;;;;20.49;79.75;101710.78;5092142;28;20041;-76
2022/08/26 01:09:20;;;;;;;5.95;1.38;;;;;;;20.51;79.86;101711.38;5107112;28;20406;-78
2022/08/26 01:11:47;;;;;;;6.45;1.30;;;;;;;20.48;80.38;101714.66;5092905;28;20654;-78
2022/08/26 01:14:13;;;;;;;2.45;0.98;;;;;;;20.48;80.27;101715.50;5109274;28;20031;-78
2022/08/26 01:16:38;;;;;;;9.00;2.03;;;;;;;20.45;80.79;101713.22;5081249;28;20027;-79
2022/08/26 01:19:21;;;;;;;2.93;1.20;;;;;;;20.49;80.06;101711.63;5075049;28;20640;-78
2022/08/26 01:21:54;;;;;;;3.72;1.25;;;;;;;20.50;80.12;101713.31;5092151;28;20028;-78
2022/08/26 01:24:19;;;;;;;14.65;1.98;;;;;;;20.47;80.76;101718.50;5071213;28;20040;-78
2022/08/26 01:26:45;;;;;;;6.60;1.90;;;;;;;20.52;80.50;101708.38;5109033;28;20122;-78
2022/08/26 01:29:17;;;;;;;9.70;1.50;;;;;;;20.55;80.63;101713.44;5108903;28;20058;-79
2022/08/26 01:31:56;;;;;;;5.85;1.70;;;;;;;20.48;80.81;101701.56;5090553;28;20061;-78
2022/08/26 01:34:24;;;;;;;7.80;1.83;;;;;;;20.52;80.47;101705.59;5091848;28;20039;-79
2022/08/26 01:36:53;;;;;;;10.13;1.60;;;;;;;20.46;80.88;101705.69;5088035;28;20118;-77
2022/08/26 01:39:18;;;;;;;6.72;1.20;;;;;;;20.44;80.92;101707.88;5091739;28;20031;-78
2022/08/26 01:41:47;;;;;;;9.27;2.33;;;;;;;20.46;80.97;101711.25;5108721;28;20280;-78
2022/08/26 01:44:17;;;;;;;7.90;1.42;;;;;;;20.46;81.09;101705.69;5086717;28;20363;-78
2022/08/26 01:46:45;;;;;;;8.07;1.67;;;;;;;20.46;81.03;101694.56;5103041;28;20050;-78
2022/08/26 01:49:12;;;;;;;8.82;1.85;;;;;;;20.41;81.51;101706.41;5090843;28;20032;-77
2022/08/26 01:51:39;;;;;;;6.10;1.45;;;;;;;20.44;81.33;101696.75;5110717;28;20024;-77
2022/08/26 01:54:07;;;;;;;3.90;1.55;;;;;;;20.52;81.11;101707.50;5089659;28;20036;-78
2022/08/26 01:56:34;;;;;;;11.85;1.58;;;;;;;20.41;81.38;101703.63;5091786;28;20027;-78
2022/08/26 01:59:05;;;;;;;8.05;1.42;;;;;;;20.40;81.48;101710.31;5096319;28;20032;-77
2022/08/26 02:01:31;;;;;;;7.88;1.58;;;;;;;20.42;81.28;101710.03;5105911;28;20069;-80
2022/08/26 02:04:00;;;;;;;6.35;1.92;;;;;;;20.41;81.17;101708.34;5109192;28;20089;-79
2022/08/26 02:06:28;;;;;;;6.10;1.30;;;;;;;20.32;81.70;101716.19;5082016;28;20560;-77
2022/08/26 02:08:58;;;;;;;7.55;1.40;;;;;;;20.33;81.56;101717.06;5105812;28;20039;-79
2022/08/26 02:11:24;;;;;;;7.28;1.58;;;;;;;20.30;81.39;101714.75;5091399;28;20027;-78
2022/08/26 02:14:08;;;;;;;3.73;1.30;;;;;;;20.35;81.45;101720.44;5108471;28;20026;-78
2022/08/26 02:16:38;;;;;;;10.30;1.45;;;;;;;20.31;81.46;101720.06;5091355;28;20040;-78
2022/08/26 02:19:08;;;;;;;9.50;1.60;;;;;;;20.36;80.95;101723.00;5074543;28;20032;-78
2022/08/26 02:21:34;;;;;;;8.77;1.60;;;;;;;20.23;81.79;101731.53;5091662;28;20037;-79
2022/08/26 02:24:15;;;;;;;15.32;2.28;;;;;;;20.26;81.46;101722.72;5089983;28;20027;-77
2022/08/26 02:26:42;;;;;;;6.13;1.38;;;;;;;20.29;81.28;101732.53;5088945;28;20035;-79
2022/08/26 02:29:25;;;;;;;;;;;;;;;20.23;81.45;101733.50;5092570;28;20049;-78
2022/08/26 02:31:54;;;;;;;7.45;1.85;;;;;;;20.23;81.20;101728.75;5104579;28;19930;-78
2022/08/26 02:34:24;;;;;;;7.07;2.30;;;;;;;20.20;81.33;101729.25;5075132;28;20448;-79
2022/08/26 02:36:50;;;;;;;7.28;1.70;;;;;;;20.18;81.45;101725.00;5106404;28;20028;-77
2022/08/26 02:39:15;;;;;;;6.10;1.50;;;;;;;20.09;81.86;101732.00;5109325;28;20088;-78
2022/08/26 02:41:42;;;;;;;10.33;2.13;;;;;;;20.16;81.22;101725.25;5088599;28;20031;-77
2022/08/26 02:44:08;;;;;;;7.55;1.50;;;;;;;20.20;81.01;101739.53;5090616;28;20027;-78
2022/08/26 02:46:33;;;;;;;8.50;1.40;;;;;;;20.10;81.30;101734.56;5090402;28;20032;-77
2022/08/26 02:49:00;;;;;;;21.95;2.05;;;;;;;20.15;81.19;101733.81;5116037;28;20076;-79
2022/08/26 02:51:25;;;;;;;14.40;1.80;;;;;;;20.09;81.02;101726.44;5109767;28;20394;-78
2022/08/26 02:53:51;;;;;;;8.07;1.40;;;;;;;20.05;81.00;101726.03;5107883;28;20088;-77
2022/08/26 02:56:16;;;;;;;13.17;2.17;;;;;;;20.05;80.91;101725.19;5091008;28;20418;-79
2022/08/26 02:58:42;;;;;;;8.93;1.53;;;;;;;19.96;81.08;101723.84;5108796;28;20490;-79
2022/08/26 03:01:07;;;;;;;6.87;1.47;;;;;;;20.01;80.97;101718.41;5104043;28;20088;-79
2022/08/26 03:03:33;;;;;;;10.80;1.33;;;;;;;19.98;81.07;101725.31;5105187;28;20046;-78
2022/08/26 03:05:58;;;;;;;9.47;1.60;;;;;;;19.99;81.03;101715.00;5073986;28;20063;-79
2022/08/26 03:08:24;;;;;;;9.83;1.57;;;;;;;19.95;81.02;101714.63;5087166;28;20073;-79
2022/08/26 03:10:49;;;;;;;6.63;1.47;;;;;;;19.90;80.92;101714.50;5091214;28;20034;-79
2022/08/26 03:13:15;;;;;;;7.40;1.40;;;;;;;19.87;81.33;101712.22;5101154;28;20085;-77
2022/08/26 03:15:40;;;;;;;11.83;1.73;;;;;;;19.84;81.03;101717.41;5088554;28;20078;-77
2022/08/26 03:18:06;;;;;;;6.33;1.50;;;;;;;19.76;81.61;101712.16;5105184;28;20038;-77
2022/08/26 03:20:32;;;;;;;6.53;1.27;;;;;;;19.70;81.77;101705.59;5072254;28;20035;-78
2022/08/26 03:22:57;;;;;;;7.93;1.45;;;;;;;19.73;81.69;101709.84;5096544;28;20059;-79
2022/08/26 03:25:24;;;;;;;8.50;1.27;;;;;;;19.80;81.45;101711.44;5083415;28;20090;-79
2022/08/26 03:27:50;;;;;;;4.80;1.33;;;;;;;19.76;81.27;101713.03;5084521;28;20340;-78
2022/08/26 03:33:01;;;;;;;8.35;2.00;;;;;;;19.76;81.36;101704.69;5106905;28;20027;-78
2022/08/26 03:35:26;;;;;;;4.83;1.10;;;;;;;19.76;81.05;101703.81;5093298;28;20031;-78
2022/08/26 03:37:52;;;;;;;4.55;1.08;;;;;;;19.66;81.60;101709.09;5110495;28;20031;-79
2022/08/26 03:40:19;;;;;;;8.07;2.00;;;;;;;19.69;81.24;101717.81;5089687;28;20032;-77
2022/08/26 03:42:44;;;;;;;;;;;;;;;19.72;81.17;101713.69;5105173;28;20632;-78
2022/08/26 03:45:12;;;;;;;6.10;1.17;;;;;;;19.69;81.26;101708.63;5091332;28;19912;-77
2022/08/26 03:47:39;;;;;;;3.03;0.85;;;;;;;19.69;81.34;101708.63;5106555;28;20457;-78
2022/08/26 03:50:09;;;;;;;4.75;1.00;;;;;;;19.74;81.24;101708.78;5111633;28;20058;-77
2022/08/26 03:52:34;;;;;;;4.68;1.00;;;;;;;19.66;81.71;101714.66;5084865;28;20043;-77
2022/08/26 03:55:04;;;;;;;8.30;1.47;;;;;;;19.65;81.53;101713.81;5110386;28;20035;-77
2022/08/26 03:57:31;;;;;;;3.50;0.98;;;;;;;19.65;81.21;101710.19;5092289;28;20107;-78
2022/08/26 03:59:57;;;;;;;5.60;1.30;;;;;;;19.68;81.35;101709.72;5072574;28;20039;-78
2022/08/26 04:02:28;;;;;;;5.70;1.30;;;;;;;19.74;80.92;101714.34;5091508;28;20032;-79
2022/08/26 04:04:53;;;;;;;7.68;1.63;;;;;;;19.73;80.72;101720.97;5074167;28;20032;-78
2022/08/26 04:07:19;;;;;;;3.40;1.03;;;;;;;19.67;81.24;101708.88;5070413;28;20032;-78
2022/08/26 04:09:44;;;;;;;6.67;1.13;;;;;;;19.68;81.13;101712.50;5077771;28;20036;-77
2022/08/26 04:12:11;;;;;;;6.00;1.13;;;;;;;19.60;81.08;101716.47;5074928;28;20027;-79
2022/08/26 04:14:36;;;;;;;;;;;;;;;19.61;81.05;101717.28;5090296;28;20141;-77
2022/08/26 04:17:03;;;;;;;10.68;2.03;;;;;;;19.58;81.05;101717.78;5071892;28;20357;-77
2022/08/26 04:19:31;;;;;;;7.78;1.63;;;;;;;19.58;81.24;101720.56;5065192;28;20043;-78
2022/08/26 04:21:59;;;;;;;6.45;1.42;;;;;;;19.51;81.58;101722.56;5074938;28;20448;-80
2022/08/26 04:24:26;;;;;;;9.63;1.60;;;;;;;19.62;81.32;101707.84;5071236;28;20403;-78
2022/08/26 04:26:55;;;;;;;7.03;1.15;;;;;;;19.59;81.29;101717.50;5069215;28;20040;-78
2022/08/26 04:29:23;;;;;;;7.97;1.00;;;;;;;19.53;81.65;101717.63;5069743;28;20024;-77
2022/08/26 04:31:49;;;;;;;5.43;1.48;;;;;;;19.47;81.96;101724.97;5087078;28;20038;-78
2022/08/26 04:34:16;;;;;;;7.43;1.57;;;;;;;19.47;82.05;101724.97;5072481;28;20036;-77
2022/08/26 04:36:42;;;;;;;5.03;1.52;;;;;;;19.47;81.76;101715.78;5074417;28;20047;-77
2022/08/26 04:39:15;;;;;;;11.23;1.20;;;;;;;19.41;82.51;101711.13;5107563;28;20032;-77
2022/08/26 04:41:42;;;;;;;5.65;1.30;;;;;;;19.41;82.59;101719.47;5093386;28;20483;-77
2022/08/26 04:44:08;;;;;;;5.10;1.60;;;;;;;19.43;82.67;101714.56;5053644;28;20091;-77
2022/08/26 04:46:34;;;;;;;6.40;1.17;;;;;;;19.41;82.95;101714.78;5086006;28;20682;-77
2022/08/26 04:48:59;;;;;;;9.40;1.90;;;;;;;19.41;82.57;101711.13;5071909;28;20028;-77
2022/08/26 04:51:28;;;;;;;10.03;1.27;;;;;;;19.35;83.18;101712.06;5073802;28;20054;-78
2022/08/26 04:53:55;;;;;;;7.85;1.50;;;;;;;19.48;82.48;101717.47;5070166;28;20043;-77
2022/08/26 04:56:28;;;;;;;3.80;1.35;;;;;;;19.40;82.96;101709.44;5070844;28;20112;-79
2022/08/26 04:58:53;;;;;;;8.20;1.23;;;;;;;19.42;83.30;101718.41;5076637;28;20090;-77
2022/08/26 05:01:19;;;;;;;6.43;1.10;;;;;;;19.40;83.19;101715.00;5074244;28;20435;-78
2022/08/26 05:03:47;;;;;;;4.55;1.33;;;;;;;19.53;83.03;101723.19;5083852;28;20024;-77
2022/08/26 05:06:14;;;;;;;5.40;1.30;;;;;;;19.53;82.53;101717.63;5090134;28;20103;-77
2022/08/26 05:08:39;;;;;;;;;;;;;;;19.55;82.76;101727.44;5091700;28;20036;-77
2022/08/26 05:11:06;;;;;;;5.10;1.58;;;;;;;19.64;82.41;101722.38;5070241;28;19984;-79
2022/08/26 05:13:33;;;;;;;7.68;1.33;;;;;;;19.66;82.08;101723.84;5073050;28;20047;-77
2022/08/26 05:16:03;;;;;;;5.53;1.38;;;;;;;19.66;82.19;101723.84;5073804;28;20039;-78
2022/08/26 05:18:30;;;;;;;4.50;1.70;;;;;;;19.73;82.22;101729.28;5069372;28;20119;-78
2022/08/26 05:20:57;;;;;;;10.65;1.50;;;;;;;19.71;81.98;101721.22;5078159;28;20078;-78
2022/08/26 05:23:23;;;;;;;7.65;0.95;;;;;;;19.74;81.99;101725.47;5081483;28;20063;-79
2022/08/26 05:25:54;;;;;;;6.80;1.70;;;;;;;19.81;81.75;101729.84;5100844;28;20460;-78
2022/08/26 05:28:20;;;;;;;2.85;1.10;;;;;;;19.82;81.77;101725.09;5064448;28;20093;-78
2022/08/26 05:30:46;;;;;;;5.22;1.33;;;;;;;19.83;81.62;101732.38;5096639;28;20028;-77
2022/08/26 05:33:15;;;;;;;3.40;1.30;;;;;;;19.86;81.42;101731.91;5105736;28;20364;-77
2022/08/26 05:35:42;;;;;;;6.32;1.35;;;;;;;19.98;81.08;101735.56;5112304;28;20024;-77
2022/08/26 05:38:08;;;;;;;;;;;;;;;19.95;81.16;101731.31;5073985;28;20488;-78
2022/08/26 05:40:37;;;;;;;4.28;1.20;;;;;;;19.99;81.02;101731.69;5068357;28;19955;-77
2022/08/26 05:43:09;;;;;;;7.47;1.30;;;;;;;20.02;80.98;101732.06;5085238;28;20036;-77
2022/08/26 05:45:38;;;;;;;9.60;1.60;;;;;;;20.08;80.99;101738.66;5090412;28;20020;-78
2022/08/26 05:48:08;;;;;;;6.28;1.20;;;;;;;20.12;80.66;101743.50;5083911;28;20032;-77
2022/08/26 05:50:39;;;;;;;8.50;1.20;;;;;;;20.14;80.60;101746.91;5086838;28;20067;-75
2022/08/26 05:53:06;;;;;;;4.80;1.30;;;;;;;20.12;80.46;101749.06;5068944;28;20027;-78
2022/08/26 05:55:32;;;;;;;5.35;1.27;;;;;;;20.19;80.29;101754.53;5074442;28;20025;-78
2022/08/26 05:57:57;;;;;;;9.25;1.30;;;;;;;20.23;79.74;101752.97;5067835;28;20119;-77
2022/08/26 06:00:22;;;;;;;6.37;1.40;;;;;;;20.21;79.49;101752.34;5091232;28;20024;-78
2022/08/26 06:02:48;;;;;;;7.30;1.20;;;;;;;20.28;79.28;101758.69;5082853;28;20048;-77
2022/08/26 06:05:13;;;;;;;8.80;1.13;;;;;;;20.17;79.70;101757.53;5090545;28;20020;-77
2022/08/26 06:10:22;;;;;;;7.75;1.42;;;;;;;20.07;79.77;101759.22;5094570;28;20051;-77
2022/08/26 06:12:48;;;;;;;11.37;1.73;;;;;;;20.11;79.54;101775.19;5091590;28;20387;-77
2022/08/26 06:15:13;;;;;;;11.33;1.80;;;;;;;20.09;79.75;101766.25;5091223;28;20420;-77
2022/08/26 06:17:39;;;;;;;8.33;2.07;;;;;;;20.12;79.79;101765.75;5082961;28;20025;-77
2022/08/26 06:20:04;;;;;;;6.63;1.10;;;;;;;20.20;79.58;101782.13;5089267;28;20116;-78
2022/08/26 06:27:58;;;;;;;6.15;1.60;;;;;;;20.25;78.69;101781.41;5090931;28;20097;-74
2022/08/26 06:30:23;;;;;;;7.57;1.53;;;;;;;20.20;78.38;101790.47;5084009;28;20125;-75
2022/08/26 06:32:48;;;;;;;12.10;1.80;;;;;;;20.21;77.80;101782.97;5085047;28;20399;-76
2022/08/26 06:35:14;;;;;;;8.80;1.33;;;;;;;20.12;77.34;101785.22;5091609;28;20044;-75
2022/08/26 06:37:39;;;;;;;7.43;1.03;;;;;;;20.09;77.29;101788.50;5066772;28;20035;-76
2022/08/26 06:40:05;;;;;;;2.80;0.83;;;;;;;20.17;77.64;101795.66;5064449;28;20048;-75
2022/08/26 06:42:31;;;;;;;11.10;1.80;;;;;;;20.18;77.81;101795.41;5081156;28;20336;-75
2022/08/26 06:44:57;;;;;;;7.80;1.58;;;;;;;20.13;77.69;101788.88;5085206;28;20379;-74
2022/08/26 06:47:22;;;;;;;4.80;1.40;;;;;;;20.17;77.65;101788.16;5085337;28;20074;-75
2022/08/26 06:49:48;;;;;;;4.50;1.17;;;;;;;20.17;77.72;101795.66;5072112;28;20031;-74
2022/08/26 06:52:13;;;;;;;7.40;1.13;;;;;;;20.16;77.51;101793.97;5071895;28;20047;-74
2022/08/26 06:54:41;;;;;;;8.30;1.43;;;;;;;20.15;77.25;101792.25;5071793;28;20123;-75
2022/08/26 06:57:11;;;;;;;8.52;1.38;;;;;;;20.17;77.42;101802.06;5076583;28;20039;-74
2022/08/26 06:59:37;;;;;;;4.75;1.42;;;;;;;20.10;77.53;101801.31;5089369;28;20028;-74
2022/08/26 07:02:03;;;;;;;8.00;1.53;;;;;;;20.13;77.55;101806.44;5060587;28;20123;-75
2022/08/26 07:04:28;;;;;;;11.75;2.00;;;;;;;20.23;77.16;101816.97;5067004;28;20515;-76
2022/08/26 07:06:54;;;;;;;7.27;1.17;;;;;;;20.20;77.28;101806.31;5070335;28;20032;-73
2022/08/26 07:09:21;;;;;;;4.35;1.30;;;;;;;20.19;77.06;101810.19;5068756;28;20039;-75
2022/08/26 07:11:47;;;;;;;5.65;1.55;;;;;;;20.18;76.95;101814.06;5068775;28;20032;-73
2022/08/26 07:14:12;;;;;;;3.77;0.97;;;;;;;20.23;76.84;101803.06;5085634;28;20126;-75
2022/08/26 07:16:39;;;;;;;4.93;1.30;;;;;;;20.21;77.05;101794.09;5087527;28;20404;-74
2022/08/26 07:19:05;;;;;;;9.35;1.65;;;;;;;20.20;77.20;101796.03;5086082;28;20494;-75
2022/08/26 07:21:30;;;;;;;7.50;1.77;;;;;;;20.26;76.76;101810.94;5067732;28;20024;-76
2022/08/26 07:23:56;;;;;;;5.80;1.60;;;;;;;20.29;76.80;101813.25;5078272;28;20028;-74
2022/08/26 07:26:27;;;;;;;4.30;1.10;;;;;;;20.35;76.58;101818.72;5066385;28;20332;-76
2022/08/26 07:28:54;;;;;;;4.75;1.10;;;;;;;20.39;76.01;101822.69;5085593;28;20054;-76
2022/08/26 07:31:22;;;;;;;2.97;1.10;;;;;;;20.34;76.13;101819.78;5068475;28;20020;-77
2022/08/26 07:33:48;;;;;;;4.68;1.48;;;;;;;20.34;76.01;101824.53;5069815;28;20089;-75
2022/08/26 07:36:16;;;;;;;6.40;1.25;;;;;;;20.37;75.79;101826.81;5086811;28;20036;-75
2022/08/26 07:38:43;;;;;;;5.82;1.30;;;;;;;20.28;75.44;101825.47;5087212;28;20474;-74
2022/08/26 07:41:09;;;;;;;5.15;1.00;;;;;;;20.36;75.65;101836.25;5083767;28;20110;-77
2022/08/26 07:43:34;;;;;;;2.15;0.82;;;;;;;20.44;75.08;101831.19;5066870;28;20056;-75
2022/08/26 07:46:00;;;;;;;3.72;1.25;;;;;;;20.46;75.13;101831.81;5060118;28;20538;-75
2022/08/26 07:48:25;;;;;;;6.17;0.90;;;;;;;20.44;75.05;101836.75;5068927;28;20081;-74
2022/08/26 07:50:52;;;;;;;4.67;1.10;;;;;;;20.49;75.04;101827.72;5087067;28;20066;-75
2022/08/26 07:53:18;;;;;;;;;;;;;;;20.51;75.20;101840.31;5064005;28;20020;-75
2022/08/26 07:55:43;;;;;;;10.13;1.60;;;;;;;20.54;75.31;101837.03;5086277;28;19998;-74
2022/08/26 07:58:08;;;;;;;5.17;1.30;;;;;;;20.45;74.90;101838.47;5085903;28;20114;-74
2022/08/26 08:00:34;;;;;;;3.53;1.07;;;;;;;20.44;75.00;101833.16;5086431;28;20441;-74
2022/08/26 08:03:01;;;;;;;10.63;1.47;;;;;;;20.34;75.42;101849.56;5068014;28;20435;-73
2022/08/26 08:05:29;;;;;;;3.40;0.93;;;;;;;20.32;75.73;101847.00;5079212;28;20051;-75
2022/08/26 08:07:54;;;;;;;10.20;1.20;;;;;;;20.24;75.74;101850.16;5057032;28;20051;-75
2022/08/26 08:10:22;;;;;;;3.90;1.47;;;;;;;20.32;75.83;101851.75;5068706;28;20043;-74
2022/08/26 08:12:49;;;;;;;9.45;1.38;;;;;;;20.28;76.17;101854.13;5086557;28;20492;-76
2022/08/26 08:15:14;;;;;;;;;;;;;;;20.36;76.52;101853.81;5089528;28;20100;-76
2022/08/26 08:17:42;;;;;;;5.40;1.73;;;;;;;20.42;76.55;101863.13;5090154;28;20357;-74
2022/08/26 08:20:08;;;;;;;5.40;1.10;;;;;;;20.42;76.64;101855.66;5073881;28;20020;-76
2022/08/26 08:22:34;;;;;;;;;;;;;;;20.50;76.42;101862.81;5089716;28;20021;-75
2022/08/26 08:24:59;;;;;;;7.72;1.23;;;;;;;20.56;76.06;101861.84;5069466;28;19922;-75
2022/08/26 08:27:25;;;;;;;10.77;1.40;;;;;;;20.55;75.83;101849.03;5087815;28;20097;-77
2022/08/26 08:29:55;;;;;;;7.13;1.20;;;;;;;20.58;75.44;101849.41;5068069;28;20043;-76
2022/08/26 08:32:22;;;;;;;5.88;1.20;;;;;;;20.79;75.33;101853.53;5063607;28;20028;-76
2022/08/26 08:34:47;;;;;;;6.88;1.05;;;;;;;20.85;74.42;101855.38;5086516;28;20446;-77
2022/08/26 08:37:16;;;;;;;2.27;0.97;;;;;;;20.82;74.44;101855.88;5067563;28;20553;-75
2022/08/26 08:39:41;;;;;;;4.75;1.40;;;;;;;20.82;74.27;101853.09;5070286;28;20028;-76
2022/08/26 08:42:58;;;;;;;4.43;1.10;;;;;;;20.75;74.03;101855.13;5068685;28;20101;-74
2022/08/26 08:45:41;;;;;;;7.90;1.35;;;;;;;20.58;74.34;101859.66;5035680;28;20043;-76
2022/08/26 08:48:15;;;;;;;4.13;1.17;;;;;;;20.64;73.59;101854.00;5089984;28;20032;-74
2022/08/26 08:50:56;;;;;;;3.10;1.00;;;;;;;20.70;72.51;101852.22;5070801;28;20055;-73
2022/08/26 08:53:32;;;;;;;5.90;0.90;;;;;;;20.79;72.08;101851.63;5068889;28;20433;-76
2022/08/26 08:56:36;;;;;;;5.30;1.08;;;;;;;20.89;71.04;101857.50;5089175;28;20099;-75
2022/08/26 08:59:23;;;;;;;3.95;1.13;;;;;;;20.84;71.02;101856.47;5070045;28;20032;-74
2022/08/26 09:01:57;;;;;;;10.52;1.35;;;;;;;20.84;71.07;101856.47;5086839;28;20031;-77
2022/08/26 09:04:54;;;;;;;6.90;1.02;;;;;;;20.83;71.20;101847.28;5079627;28;20044;-75
2022/08/26 09:07:58;;;;;;;2.95;0.90;;;;;;;21.16;70.58;101857.84;5087075;28;20097;-76
2022/08/26 09:10:34;;;;;;;7.78;1.25;;;;;;;21.19;70.46;101857.38;5057503;28;20042;-76
2022/08/26 09:13:01;;;;;;;5.88;1.08;;;;;;;21.26;69.65;101864.53;5069012;28;20089;-75
2022/08/26 09:15:51;;;;;;;4.85;1.17;;;;;;;21.22;69.47;101863.31;5089299;28;20130;-76
2022/08/26 09:18:51;;;;;;;1.60;0.57;;;;;;;21.39;69.47;101871.81;5088855;28;20039;-75
2022/08/26 09:21:22;;;;;;;2.47;0.70;;;;;;;21.33;68.87;101862.47;5063236;28;20090;-75
2022/08/26 09:23:49;;;;;;;11.93;0.90;;;;;;;21.28;68.95;101861.53;5092074;28;20024;-74
2022/08/26 09:26:25;;;;;;;4.25;0.75;;;;;;;21.34;68.75;101866.94;5070053;28;20089;-76
2022/08/26 09:29:02;;;;;;;2.05;1.00;;;;;;;21.42;68.21;101865.72;5070343;28;20094;-73
2022/08/26 09:31:31;;;;;;;5.15;0.85;;;;;;;21.36;68.99;101864.78;5070169;28;20127;-74
2022/08/26 09:34:14;;;;;;;6.38;1.33;;;;;;;21.39;68.64;101861.50;5087647;28;20051;-75
2022/08/26 09:36:43;;;;;;;6.85;1.30;;;;;;;21.52;68.44;101869.63;5087232;28;20395;-74
2022/08/26 09:39:26;;;;;;;6.43;1.30;;;;;;;21.55;69.14;101869.13;5084003;28;20112;-73
2022/08/26 09:42:10;;;;;;;6.03;0.88;;;;;;;21.60;68.16;101860.03;5085399;28;20032;-74
2022/08/26 09:45:00;;;;;;;0.82;0.60;;;;;;;21.46;68.82;101872.53;5088082;28;20055;-73
2022/08/26 09:47:36;;;;;;;5.38;0.82;;;;;;;21.41;68.74;101876.06;5060258;28;20032;-73
2022/08/26 09:50:22;;;;;;;2.60;0.90;;;;;;;21.11;69.72;101866.09;5069663;28;20024;-73
2022/08/26 09:53:03;;;;;;;5.82;1.00;;;;;;;21.10;70.28;101867.19;5086279;28;20032;-75
2022/08/26 09:55:28;;;;;;;4.20;0.85;;;;;;;21.09;69.70;101857.13;5088524;28;20402;-77
2022/08/26 09:57:55;;;;;;;8.30;1.50;;;;;;;21.28;69.77;101867.09;5087304;28;20201;-74
2022/08/26 10:00:29;;;;;;;12.68;0.98;;;;;;;21.40;69.39;101865.16;5070234;28;20542;-75
2022/08/26 10:02:56;;;;;;;4.40;1.38;;;;;;;21.31;68.30;101869.38;5070315;28;20032;-74
2022/08/26 10:05:43;;;;;;;4.65;1.33;;;;;;;21.48;69.17;101868.41;5069130;28;20125;-76
2022/08/26 10:08:36;;;;;;;2.70;0.80;;;;;;;21.25;67.88;101868.44;5063607;28;20040;-75
2022/08/26 10:11:09;;;;;;;5.88;1.17;;;;;;;21.37;68.08;101863.69;5084705;28;20459;-75
2022/08/26 10:13:41;;;;;;;6.57;1.20;;;;;;;21.38;67.27;101872.88;5068954;28;20496;-74
2022/08/26 10:16:13;;;;;;;2.70;0.85;;;;;;;21.43;67.58;101870.22;5088116;28;20107;-74
2022/08/26 10:18:44;;;;;;;4.55;1.05;;;;;;;21.22;67.91;101868.03;5087236;28;20483;-76
2022/08/26 10:21:15;;;;;;;4.45;1.02;;;;;;;21.28;68.21;101869.88;5064195;28;20040;-76
2022/08/26 10:23:44;;;;;;;5.45;0.73;;;;;;;21.35;67.31;101867.81;5057202;28;20053;-75
2022/08/26 10:26:23;;;;;;;2.50;0.70;;;;;;;21.54;67.71;101872.13;5083284;28;20081;-75
2022/08/26 10:28:51;;;;;;;3.78;1.08;;;;;;;21.53;67.75;101878.81;5086424;28;20431;-74
2022/08/26 10:31:27;;;;;;;7.45;1.50;;;;;;;21.61;67.22;101881.25;5078327;28;20521;-75
2022/08/26 10:33:54;;;;;;;4.70;0.80;;;;;;;21.66;67.42;101873.81;5061487;28;20024;-74
2022/08/26 10:39:30;;;;;;;8.32;1.25;;;;;;;21.65;67.71;101874.94;5086385;28;20101;-78
2022/08/26 10:42:02;;;;;;;6.05;1.27;;;;;;;21.64;67.79;101866.78;5090268;28;20028;-79
2022/08/26 10:44:31;;;;;;;4.35;0.93;;;;;;;21.67;68.10;101880.25;5089332;28;20024;-80
2022/08/26 10:47:04;;;;;;;11.85;1.40;;;;;;;21.75;68.22;101882.69;5073272;28;20061;-79
2022/08/26 10:49:30;;;;;;;9.25;1.25;;;;;;;21.74;67.86;101878.22;5094375;28;20448;-79
2022/08/26 10:52:05;;;;;;;3.38;1.30;;;;;;;21.61;68.55;101882.06;5099697;28;22135;-78
2022/08/26 10:54:51;;;;;;;5.35;1.50;;;;;;;21.56;69.14;101878.34;5078049;28;20032;-79
2022/08/26 10:57:41;;;;;;;5.70;1.40;;;;;;;21.33;69.53;101881.97;5093323;28;20059;-77
2022/08/26 11:03:15;;;;;;;14.05;1.30;;;;;;;20.87;71.05;101886.63;5089181;28;20039;-77
2022/08/26 11:05:40;;;;;;;7.18;1.67;;;;;;;20.84;71.15;101889.88;5072669;28;20070;-78
2022/08/26 11:08:32;;;;;;;3.93;1.20;;;;;;;20.91;71.11;101896.25;5070560;28;20466;-77
2022/08/26 11:11:00;;;;;;;12.43;1.38;;;;;;;21.00;70.93;101892.88;5083775;28;20040;-78
2022/08/26 11:13:58;;;;;;;5.75;1.15;;;;;;;21.26;70.22;101885.97;5070151;28;20391;-78
2022/08/26 11:16:38;;;;;;;6.35;1.25;;;;;;;21.22;69.42;101890.34;5086368;28;20057;-79
2022/08/26 11:19:05;;;;;;;5.65;1.42;;;;;;;21.32;69.35;101890.59;5084052;28;20033;-77
2022/08/26 11:22:08;;;;;;;8.02;1.20;;;;;;;21.23;69.13;101887.31;5062158;28;20040;-78
2022/08/26 11:24:56;;;;;;;2.70;1.10;;;;;;;21.37;68.70;101887.91;5047141;28;20036;-79
2022/08/26 11:27:27;;;;;;;8.18;1.98;;;;;;;21.41;68.50;101877.97;5084235;28;20077;-78
2022/08/26 11:30:04;;;;;;;6.55;1.25;;;;;;;21.48;68.05;101884.28;5070651;28;20039;-80
2022/08/26 11:32:51;;;;;;;8.57;1.70;;;;;;;21.64;67.95;101883.53;5092754;28;20214;-80
2022/08/26 11:35:19;;;;;;;9.43;1.50;;;;;;;21.74;67.44;101875.44;5060161;28;20115;-79
2022/08/26 11:38:01;;;;;;;8.75;1.60;;;;;;;22.06;65.77;101868.31;5071181;28;20111;-80
2022/08/26 11:40:40;;;;;;;7.00;1.55;;;;;;;22.25;64.97;101867.03;5068196;28;20064;-80
2022/08/26 11:43:18;;;;;;;5.07;1.33;;;;;;;22.19;65.25;101866.06;5083698;28;20024;-78
2022/08/26 11:45:56;;;;;;;8.63;1.60;;;;;;;21.89;65.78;101872.97;5092265;28;20040;-79
2022/08/26 11:48:38;;;;;;;6.28;1.40;;;;;;;22.00;66.31;101874.88;5056342;28;20479;-79
2022/08/26 11:51:11;;;;;;;6.68;1.70;;;;;;;21.73;66.08;101871.81;5069913;28;20055;-77
2022/08/26 11:53:45;;;;;;;6.90;1.90;;;;;;;21.82;66.31;101873.09;5068432;28;20494;-78
2022/08/26 11:56:33;;;;;;;2.20;1.30;;;;;;;21.76;67.12;101876.03;5085822;28;20032;-78